createdAt,value
2022-10-20T00:02:25.629Z,11.60
2022-10-20T00:05:11.500Z,11.61
2022-10-20T00:07:56.851Z,11.62
2022-10-20T00:10:42.712Z,11.63
2022-10-20T00:13:28.162Z,11.64
2022-10-20T00:16:13.838Z,11.64
2022-10-20T00:18:59.586Z,11.68
2022-10-20T00:21:44.851Z,11.65
2022-10-20T00:24:30.144Z,11.67
2022-10-20T00:27:15.451Z,11.69
2022-10-20T00:30:00.652Z,11.72
2022-10-20T00:32:47.813Z,11.74
2022-10-20T00:35:34.117Z,11.76
2022-10-20T00:38:19.739Z,11.77
2022-10-20T00:41:05.357Z,11.81
2022-10-20T00:44:02.695Z,11.81
2022-10-20T00:46:48.698Z,11.84
2022-10-20T00:49:34.224Z,11.86
2022-10-20T00:52:22.453Z,11.87
2022-10-20T00:55:10.205Z,11.86
2022-10-20T00:57:57.883Z,11.89
2022-10-20T01:00:45.965Z,11.91
2022-10-20T01:03:39.702Z,11.92
2022-10-20T01:06:25.562Z,11.93
2022-10-20T01:09:11.408Z,11.96
2022-10-20T01:12:03.246Z,11.97
2022-10-20T01:15:02.973Z,11.98
2022-10-20T01:18:09.952Z,12.01
2022-10-20T01:21:13.914Z,12.04
2022-10-20T01:24:04.807Z,12.05
2022-10-20T01:27:14.805Z,12.06
2022-10-20T01:30:13.913Z,12.10
2022-10-20T01:33:30.430Z,12.11
2022-10-20T01:36:27.733Z,12.12
2022-10-20T01:39:19.689Z,12.14
2022-10-20T01:42:11.568Z,12.16
2022-10-20T01:45:03.271Z,12.15
2022-10-20T01:47:51.675Z,12.15
2022-10-20T01:50:40.106Z,12.14
2022-10-20T01:53:25.468Z,12.18
2022-10-20T01:56:40.348Z,12.20
2022-10-20T01:59:59.805Z,12.20
2022-10-20T02:02:58.450Z,12.21
2022-10-20T02:06:07.092Z,12.23
2022-10-20T02:08:55.918Z,12.22
2022-10-20T02:11:53.612Z,12.24
2022-10-20T02:14:40.053Z,12.25
2022-10-20T02:17:25.872Z,12.25
2022-10-20T02:20:11.829Z,12.26
2022-10-20T02:23:00.031Z,12.27
2022-10-20T02:25:49.173Z,12.26
2022-10-20T02:28:39.453Z,12.27
2022-10-20T02:31:25.547Z,12.26
2022-10-20T02:34:12.397Z,12.26
2022-10-20T02:36:58.950Z,12.24
2022-10-20T02:39:44.321Z,12.21
2022-10-20T02:42:29.624Z,12.18
2022-10-20T02:45:15.795Z,12.13
2022-10-20T02:48:02.563Z,12.08
2022-10-20T02:50:49.766Z,11.96
2022-10-20T02:53:35.141Z,11.88
2022-10-20T02:56:21.349Z,11.78
2022-10-20T02:59:06.813Z,11.69
2022-10-20T03:01:52.806Z,11.60
2022-10-20T03:04:38.299Z,11.49
2022-10-20T03:07:23.501Z,11.41
2022-10-20T03:10:09.155Z,11.31
2022-10-20T03:12:54.551Z,11.21
2022-10-20T03:15:40.375Z,11.19
2022-10-20T03:18:25.549Z,11.15
2022-10-20T03:21:11.121Z,11.16
2022-10-20T03:23:56.453Z,11.30
2022-10-20T03:26:41.885Z,11.38
2022-10-20T03:29:27.217Z,11.36
2022-10-20T03:32:12.643Z,11.30
2022-10-20T03:34:57.975Z,11.34
2022-10-20T03:37:43.454Z,11.34
2022-10-20T03:40:28.984Z,11.34
2022-10-20T03:43:15.501Z,11.33
2022-10-20T03:46:06.336Z,11.27
2022-10-20T03:48:51.820Z,11.20
2022-10-20T03:51:37.176Z,11.10
2022-10-20T03:54:22.362Z,10.94
2022-10-20T03:57:08.223Z,10.71
2022-10-20T03:59:53.599Z,10.67
2022-10-20T04:02:46.724Z,10.53
2022-10-20T04:05:32.464Z,10.35
2022-10-20T04:08:17.722Z,10.35
2022-10-20T04:11:03.249Z,10.29
2022-10-20T04:13:48.903Z,10.14
2022-10-20T04:16:34.297Z,9.88
2022-10-20T04:19:20.303Z,9.74
2022-10-20T04:22:05.628Z,9.61
2022-10-20T04:24:50.978Z,9.50
2022-10-20T04:27:36.597Z,9.50
2022-10-20T04:30:22.370Z,9.56
2022-10-20T04:33:08.217Z,9.50
2022-10-20T04:36:01.913Z,9.45
2022-10-20T04:38:47.274Z,9.51
2022-10-20T04:41:32.871Z,9.64
2022-10-20T04:44:18.597Z,9.73
2022-10-20T04:47:03.977Z,9.78
2022-10-20T04:49:49.519Z,9.70
2022-10-20T04:52:35.107Z,9.55
2022-10-20T04:55:20.927Z,9.56
2022-10-20T04:58:06.177Z,9.51
2022-10-20T05:00:51.525Z,9.37
2022-10-20T05:03:37.703Z,9.22
2022-10-20T05:06:25.691Z,9.12
2022-10-20T05:09:11.240Z,9.23
2022-10-20T05:11:56.598Z,9.29
2022-10-20T05:14:41.908Z,9.18
2022-10-20T05:17:29.556Z,9.12
2022-10-20T05:20:15.291Z,9.11
2022-10-20T05:23:00.499Z,9.17
2022-10-20T05:25:46.081Z,9.07
2022-10-20T05:28:31.885Z,8.96
2022-10-20T05:31:19.674Z,8.99
2022-10-20T05:34:05.839Z,9.01
2022-10-20T05:36:54.443Z,8.97
2022-10-20T05:39:39.991Z,8.85
2022-10-20T05:42:25.681Z,8.77
2022-10-20T05:45:11.205Z,8.88
2022-10-20T05:47:56.794Z,8.94
2022-10-20T05:50:42.192Z,9.02
2022-10-20T05:53:27.492Z,9.31
2022-10-20T05:56:16.553Z,9.47
2022-10-20T05:59:02.179Z,9.44
2022-10-20T06:01:50.484Z,9.48
2022-10-20T06:04:36.066Z,9.45
2022-10-20T06:07:21.408Z,9.38
2022-10-20T06:10:06.963Z,9.26
2022-10-20T06:12:52.456Z,9.08
2022-10-20T06:15:37.786Z,8.83
2022-10-20T06:18:23.357Z,8.75
2022-10-20T06:21:15.601Z,8.80
2022-10-20T06:24:04.743Z,8.90
2022-10-20T06:26:50.094Z,9.06
2022-10-20T06:29:35.369Z,9.11
2022-10-20T06:32:20.831Z,9.14
2022-10-20T06:35:06.635Z,9.11
2022-10-20T06:37:51.994Z,9.11
2022-10-20T06:40:37.419Z,9.00
2022-10-20T06:43:22.940Z,8.86
2022-10-20T06:46:12.702Z,8.79
2022-10-20T06:49:03.847Z,8.66
2022-10-20T06:51:49.951Z,8.46
2022-10-20T06:54:35.696Z,8.31
2022-10-20T06:57:21.054Z,8.15
2022-10-20T07:00:07.074Z,8.02
2022-10-20T07:02:52.815Z,7.94
2022-10-20T07:05:38.078Z,7.92
2022-10-20T07:08:24.316Z,7.87
2022-10-20T07:11:18.774Z,7.94
2022-10-20T07:14:05.064Z,8.06
2022-10-20T07:16:50.385Z,8.03
2022-10-20T07:19:35.919Z,8.09
2022-10-20T07:22:21.430Z,8.06
2022-10-20T07:25:07.583Z,8.23
2022-10-20T07:27:54.749Z,8.34
2022-10-20T07:30:41.383Z,8.44
2022-10-20T07:33:26.922Z,8.46
2022-10-20T07:36:24.180Z,8.47
2022-10-20T07:39:11.867Z,8.47
2022-10-20T07:41:57.459Z,8.57
2022-10-20T07:44:42.755Z,8.62
2022-10-20T07:47:28.240Z,8.72
2022-10-20T07:50:13.607Z,8.77
2022-10-20T07:52:58.969Z,8.70
2022-10-20T07:55:46.100Z,8.62
2022-10-20T07:58:31.746Z,8.58
2022-10-20T08:01:17.360Z,8.55
2022-10-20T08:04:04.181Z,8.83
2022-10-20T08:06:49.803Z,8.96
2022-10-20T08:09:35.130Z,9.08
2022-10-20T08:12:20.581Z,9.28
2022-10-20T08:15:14.203Z,9.58
2022-10-20T08:17:59.476Z,9.72
2022-10-20T08:20:45.768Z,9.72
2022-10-20T08:23:31.396Z,9.67
2022-10-20T08:26:22.670Z,9.53
2022-10-20T08:29:09.124Z,9.41
2022-10-20T08:31:54.525Z,9.42
2022-10-20T08:34:40.561Z,9.55
2022-10-20T08:37:26.062Z,9.54
2022-10-20T08:40:17.917Z,9.53
2022-10-20T08:43:03.589Z,9.58
2022-10-20T08:45:49.401Z,9.73
2022-10-20T08:48:35.177Z,9.86
2022-10-20T08:51:23.628Z,10.02
2022-10-20T08:54:15.012Z,10.12
2022-10-20T08:57:00.713Z,10.20
2022-10-20T08:59:46.305Z,10.27
2022-10-20T09:02:34.555Z,10.32
2022-10-20T09:05:30.386Z,10.36
2022-10-20T09:08:15.931Z,10.40
2022-10-20T09:11:03.236Z,10.53
2022-10-20T09:16:59.129Z,10.81
2022-10-20T09:19:57.951Z,10.86
2022-10-20T09:22:43.256Z,10.92
2022-10-20T09:25:29.112Z,10.99
2022-10-20T09:28:23.463Z,11.11
2022-10-20T09:31:33.601Z,11.19
2022-10-20T09:34:29.909Z,11.35
2022-10-20T09:37:19.230Z,11.45
2022-10-20T09:40:05.526Z,11.48
2022-10-20T09:42:55.869Z,11.45
2022-10-20T09:45:52.754Z,11.41
2022-10-20T09:48:42.659Z,11.51
2022-10-20T09:51:30.291Z,11.50
2022-10-20T09:54:18.524Z,11.58
2022-10-20T09:57:16.797Z,11.61
2022-10-20T10:00:13.474Z,11.71
2022-10-20T10:03:20.056Z,11.81
2022-10-20T10:06:41.065Z,11.92
2022-10-20T10:09:34.592Z,12.07
2022-10-20T10:12:20.444Z,12.22
2022-10-20T10:15:28.105Z,12.41
2022-10-20T10:18:23.188Z,12.49
2022-10-20T10:21:12.356Z,12.64
2022-10-20T10:24:01.263Z,12.84
2022-10-20T10:26:53.405Z,13.24
2022-10-20T10:29:39.087Z,13.39
2022-10-20T10:32:27.683Z,13.46
2022-10-20T10:35:31.971Z,13.44
2022-10-20T10:38:17.511Z,13.44
2022-10-20T10:41:26.002Z,13.46
2022-10-20T10:44:17.451Z,13.48
2022-10-20T10:47:37.805Z,13.54
2022-10-20T10:50:51.731Z,13.65
2022-10-20T10:53:56.001Z,13.79
2022-10-20T10:56:48.923Z,13.89
2022-10-20T10:59:37.033Z,13.96
2022-10-20T11:02:50.663Z,13.96
2022-10-20T11:05:49.027Z,13.92
2022-10-20T11:08:54.739Z,13.82
2022-10-20T11:11:44.606Z,13.83
2022-10-20T11:14:47.225Z,14.04
2022-10-20T11:18:12.279Z,14.15
2022-10-20T11:21:21.187Z,14.11
2022-10-20T11:24:28.412Z,14.14
2022-10-20T11:27:23.143Z,14.10
2022-10-20T11:30:16.889Z,14.04
2022-10-20T11:33:14.384Z,14.03
2022-10-20T11:36:11.494Z,14.16
2022-10-20T11:38:57.277Z,14.20
2022-10-20T11:41:43.183Z,14.23
2022-10-20T11:44:38.581Z,14.29
2022-10-20T11:47:34.904Z,14.32
2022-10-20T11:50:20.636Z,14.20
2022-10-20T11:53:31.131Z,14.15
2022-10-20T11:56:19.778Z,14.17
2022-10-20T11:59:17.176Z,14.20
2022-10-20T12:02:12.521Z,14.32
2022-10-20T12:05:16.712Z,14.40
2022-10-20T12:08:30.233Z,14.57
2022-10-20T12:11:40.731Z,14.69
2022-10-20T12:14:36.918Z,14.87
2022-10-20T12:17:35.880Z,14.93
2022-10-20T12:20:21.494Z,14.82
2022-10-20T12:23:06.987Z,14.77
2022-10-20T12:25:52.433Z,14.80
2022-10-20T12:28:42.400Z,14.89
2022-10-20T12:32:04.922Z,15.07
2022-10-20T12:34:53.288Z,15.19
2022-10-20T12:37:42.209Z,15.20
2022-10-20T12:40:40.510Z,15.22
2022-10-20T12:43:30.281Z,15.24
2022-10-20T12:46:21.438Z,15.34
2022-10-20T12:49:13.047Z,15.33
2022-10-20T12:51:59.689Z,15.33
2022-10-20T12:54:48.639Z,15.33
2022-10-20T12:57:43.175Z,15.30
2022-10-20T13:00:28.865Z,15.29
2022-10-20T13:03:49.479Z,15.37
2022-10-20T13:06:34.900Z,15.34
2022-10-20T13:09:21.805Z,15.36
2022-10-20T13:12:26.488Z,15.36
2022-10-20T13:15:16.231Z,15.35
2022-10-20T13:18:13.655Z,15.28
2022-10-20T13:21:07.739Z,15.29
2022-10-20T13:24:14.227Z,15.36
2022-10-20T13:27:08.976Z,15.48
2022-10-20T13:29:54.999Z,15.53
2022-10-20T13:33:11.135Z,15.64
2022-10-20T13:36:14.419Z,15.78
2022-10-20T13:39:07.026Z,15.89
2022-10-20T13:41:58.520Z,16.12
2022-10-20T13:44:56.297Z,16.11
2022-10-20T13:47:52.396Z,16.02
2022-10-20T13:50:50.233Z,15.95
2022-10-20T13:53:40.577Z,15.85
2022-10-20T13:56:40.513Z,15.60
2022-10-20T13:59:28.478Z,15.34
2022-10-20T14:02:26.535Z,15.31
2022-10-20T14:05:13.580Z,15.22
2022-10-20T14:08:04.630Z,15.29
2022-10-20T14:10:57.154Z,15.38
2022-10-20T14:13:43.349Z,15.43
2022-10-20T14:16:30.874Z,15.54
2022-10-20T14:19:16.519Z,15.77
2022-10-20T14:22:24.296Z,15.93
2022-10-20T14:25:10.976Z,15.89
2022-10-20T14:27:57.203Z,15.87
2022-10-20T14:30:43.906Z,15.76
2022-10-20T14:33:30.711Z,15.80
2022-10-20T14:39:27.601Z,15.89
2022-10-20T14:42:25.240Z,15.98
2022-10-20T14:45:19.815Z,16.03
2022-10-20T14:48:09.500Z,16.12
2022-10-20T14:50:55.398Z,16.42
2022-10-20T14:53:40.943Z,16.46
2022-10-20T14:56:26.497Z,16.43
2022-10-20T14:59:17.178Z,16.32
2022-10-20T15:02:10.781Z,16.21
2022-10-20T15:04:56.506Z,16.16
2022-10-20T15:07:42.368Z,15.94
2022-10-20T15:10:31.000Z,15.62
2022-10-20T15:13:29.874Z,15.43
2022-10-20T15:16:40.751Z,15.33
2022-10-20T15:19:28.373Z,15.30
2022-10-20T15:25:04.626Z,15.34
2022-10-20T15:27:50.703Z,15.45
2022-10-20T15:30:36.097Z,15.59
2022-10-20T15:33:22.078Z,15.62
2022-10-20T15:36:19.973Z,15.58
2022-10-20T15:39:06.055Z,15.45
2022-10-20T15:41:53.858Z,15.32
2022-10-20T15:44:39.776Z,15.13
2022-10-20T15:47:25.173Z,14.93
2022-10-20T15:50:10.960Z,14.85
2022-10-20T15:52:56.545Z,14.70
2022-10-20T15:55:43.082Z,14.57
2022-10-20T15:58:28.572Z,14.44
2022-10-20T16:01:16.941Z,14.38
2022-10-20T16:04:14.398Z,14.26
2022-10-20T16:07:02.742Z,14.15
2022-10-20T16:09:48.788Z,14.03
2022-10-20T16:12:34.725Z,13.93
2022-10-20T16:15:20.632Z,13.81
2022-10-20T16:18:08.934Z,13.69
2022-10-20T16:20:58.575Z,13.56
2022-10-20T16:23:45.020Z,13.44
2022-10-20T16:26:30.713Z,13.33
2022-10-20T16:29:16.176Z,13.21
2022-10-20T16:32:01.493Z,13.13
2022-10-20T16:34:47.128Z,13.04
2022-10-20T16:37:33.949Z,12.93
2022-10-20T16:40:20.067Z,12.81
2022-10-20T16:43:05.500Z,12.72
2022-10-20T16:45:51.167Z,12.63
2022-10-20T16:48:38.986Z,12.53
2022-10-20T16:51:25.825Z,12.40
2022-10-20T16:54:11.215Z,12.27
2022-10-20T16:56:56.692Z,12.20
2022-10-20T16:59:43.367Z,12.08
2022-10-20T17:02:29.080Z,11.98
2022-10-20T17:05:14.569Z,11.96
2022-10-20T17:07:59.909Z,11.85
2022-10-20T17:10:45.140Z,11.72
2022-10-20T17:13:31.854Z,11.61
2022-10-20T17:16:28.633Z,11.49
2022-10-20T17:19:14.602Z,11.40
2022-10-20T17:22:00.133Z,11.33
2022-10-20T17:24:45.492Z,11.21
2022-10-20T17:27:30.803Z,11.07
2022-10-20T17:30:16.122Z,10.98
2022-10-20T17:33:01.488Z,10.92
2022-10-20T17:35:50.423Z,10.85
2022-10-20T17:38:36.109Z,10.73
2022-10-20T17:41:22.073Z,10.65
2022-10-20T17:44:08.472Z,10.51
2022-10-20T17:46:54.077Z,10.55
2022-10-20T17:49:39.411Z,10.57
2022-10-20T17:52:24.617Z,10.56
2022-10-20T17:55:10.232Z,10.40
2022-10-20T17:57:56.314Z,10.34
2022-10-20T18:00:55.406Z,10.35
2022-10-20T18:03:42.875Z,10.34
2022-10-20T18:06:34.179Z,10.28
2022-10-20T18:09:20.357Z,10.11
2022-10-20T18:12:06.133Z,9.94
2022-10-20T18:14:51.366Z,9.81
2022-10-20T18:17:36.763Z,9.77
2022-10-20T18:20:22.238Z,9.63
2022-10-20T18:23:07.446Z,9.66
2022-10-20T18:25:52.883Z,9.83
2022-10-20T18:28:44.363Z,9.94
2022-10-20T18:31:34.496Z,9.78
2022-10-20T18:34:20.826Z,9.61
2022-10-20T18:37:06.436Z,9.52
2022-10-20T18:39:51.760Z,9.49
2022-10-20T18:42:37.103Z,9.40
2022-10-20T18:45:25.187Z,9.46
2022-10-20T18:48:11.533Z,9.43
2022-10-20T18:51:02.209Z,9.38
2022-10-20T18:53:51.219Z,9.43
2022-10-20T18:56:37.427Z,9.54
2022-10-20T18:59:23.134Z,9.60
2022-10-20T19:02:10.497Z,9.70
2022-10-20T19:04:58.298Z,9.61
2022-10-20T19:07:43.875Z,9.61
2022-10-20T19:10:29.159Z,9.59
2022-10-20T19:13:14.850Z,9.46
2022-10-20T19:16:01.198Z,9.74
2022-10-20T19:18:49.747Z,9.67
2022-10-20T19:21:35.818Z,9.58
2022-10-20T19:24:23.572Z,9.42
2022-10-20T19:30:14.727Z,9.51
2022-10-20T19:33:00.901Z,9.42
2022-10-20T19:35:46.513Z,9.39
2022-10-20T19:38:31.929Z,9.34
2022-10-20T19:41:17.476Z,9.54
2022-10-20T19:44:03.410Z,9.53
2022-10-20T19:46:51.660Z,9.39
2022-10-20T19:49:37.864Z,9.44
2022-10-20T19:52:23.753Z,9.49
2022-10-20T19:55:09.359Z,9.70
2022-10-20T19:57:54.641Z,9.82
2022-10-20T20:00:44.327Z,9.62
2022-10-20T20:03:30.204Z,9.59
2022-10-20T20:06:19.482Z,9.59
2022-10-20T20:09:07.404Z,9.72
2022-10-20T20:11:52.622Z,9.74
2022-10-20T20:14:38.017Z,9.80
2022-10-20T20:17:23.458Z,9.78
2022-10-20T20:20:08.921Z,9.92
2022-10-20T20:22:55.053Z,9.79
2022-10-20T20:25:42.600Z,9.85
2022-10-20T20:28:28.053Z,9.93
2022-10-20T20:31:13.936Z,10.09
2022-10-20T20:33:59.829Z,10.23
2022-10-20T20:36:45.414Z,10.30
2022-10-20T20:39:31.073Z,10.36
2022-10-20T20:42:16.791Z,10.41
2022-10-20T20:45:02.737Z,10.42
2022-10-20T20:47:48.262Z,10.48
2022-10-20T20:50:33.871Z,10.57
2022-10-20T20:53:19.499Z,10.67
2022-10-20T20:56:08.300Z,10.84
2022-10-20T20:58:55.260Z,10.93
2022-10-20T21:01:42.257Z,11.07
2022-10-20T21:04:30.671Z,11.07
2022-10-20T21:07:16.498Z,11.04
2022-10-20T21:10:02.057Z,10.95
2022-10-20T21:12:47.634Z,10.96
2022-10-20T21:15:32.924Z,10.94
2022-10-20T21:18:18.411Z,10.96
2022-10-20T21:21:17.748Z,11.02
2022-10-20T21:24:05.163Z,11.04
2022-10-20T21:26:50.583Z,11.12
2022-10-20T21:29:35.966Z,11.38
2022-10-20T21:32:21.337Z,11.63
2022-10-20T21:35:06.907Z,11.85
2022-10-20T21:37:52.503Z,12.01
2022-10-20T21:40:37.883Z,12.06
2022-10-20T21:43:23.267Z,12.06
2022-10-20T21:46:21.890Z,11.95
2022-10-20T21:49:10.686Z,11.93
2022-10-20T21:51:57.583Z,11.97
2022-10-20T21:54:43.220Z,12.08
2022-10-20T21:57:28.800Z,12.11
2022-10-20T22:00:14.804Z,12.16
2022-10-20T22:03:03.604Z,12.15
2022-10-20T22:05:49.151Z,12.13
2022-10-20T22:08:36.893Z,12.22
2022-10-20T22:11:28.706Z,12.44
2022-10-20T22:14:14.663Z,12.37
2022-10-20T22:17:01.109Z,12.49
2022-10-20T22:19:46.932Z,12.60
2022-10-20T22:22:32.434Z,12.58
2022-10-20T22:25:17.849Z,12.68
2022-10-20T22:28:05.320Z,12.79
2022-10-20T22:30:50.820Z,12.82
2022-10-20T22:33:36.797Z,12.84
2022-10-20T22:36:23.890Z,13.07
2022-10-20T22:39:09.344Z,13.33
2022-10-20T22:41:54.645Z,13.18
2022-10-20T22:44:40.020Z,13.29
2022-10-20T22:47:25.239Z,13.31
2022-10-20T22:50:10.722Z,13.41
2022-10-20T22:52:55.963Z,13.37
2022-10-20T22:55:41.394Z,13.30
2022-10-20T22:58:27.080Z,13.25
2022-10-20T23:01:18.078Z,13.49
2022-10-20T23:04:03.362Z,13.40
2022-10-20T23:06:49.213Z,13.38
2022-10-20T23:09:34.673Z,13.34
2022-10-20T23:12:20.318Z,13.32
2022-10-20T23:15:06.779Z,13.30
2022-10-20T23:17:52.282Z,13.25
2022-10-20T23:20:40.267Z,13.28
2022-10-20T23:23:26.093Z,13.39
2022-10-20T23:26:12.619Z,13.25
2022-10-20T23:28:58.270Z,13.34
2022-10-20T23:31:43.654Z,13.26
2022-10-20T23:34:29.349Z,13.20
2022-10-20T23:37:14.686Z,13.36
2022-10-20T23:40:00.031Z,13.30
2022-10-20T23:42:45.387Z,13.23
2022-10-20T23:45:32.919Z,13.25
2022-10-20T23:48:21.796Z,13.23
2022-10-20T23:51:08.316Z,13.27
2022-10-20T23:53:54.373Z,13.31
2022-10-20T23:56:39.806Z,13.18
2022-10-20T23:59:25.083Z,13.07
